sensor_id;sensor_type;location;lat;lon;timestamp;temperature;humidity
44487;DHT22;30191;50.908;6.962;2023-02-01T00:01:20;7.90;99.90
44487;DHT22;30191;50.908;6.962;2023-02-01T00:03:45;7.90;99.90
44487;DHT22;30191;50.908;6.962;2023-02-01T00:06:11;7.90;99.90
44487;DHT22;30191;50.908;6.962;2023-02-01T00:08:36;7.90;99.90
44487;DHT22;30191;50.908;6.962;2023-02-01T00:11:06;7.90;99.90
44487;DHT22;30191;50.908;6.962;2023-02-01T00:13:33;7.80;99.90
44487;DHT22;30191;50.908;6.962;2023-02-01T00:16:05;7.80;99.90
44487;DHT22;30191;50.908;6.962;2023-02-01T00:18:31;7.80;99.90
44487;DHT22;30191;50.908;6.962;2023-02-01T00:20:57;7.80;99.90
44487;DHT22;30191;50.908;6.962;2023-02-01T00:23:22;7.70;99.90
44487;DHT22;30191;50.908;6.962;2023-02-01T00:25:48;7.70;99.90
44487;DHT22;30191;50.908;6.962;2023-02-01T00:28:14;7.70;99.90
44487;DHT22;30191;50.908;6.962;2023-02-01T00:30:39;7.70;99.90
44487;DHT22;30191;50.908;6.962;2023-02-01T00:33:05;7.70;99.90
44487;DHT22;30191;50.908;6.962;2023-02-01T00:35:31;7.70;99.90
44487;DHT22;30191;50.908;6.962;2023-02-01T00:37:56;7.60;99.90
44487;DHT22;30191;50.908;6.962;2023-02-01T00:40:24;7.60;99.90
44487;DHT22;30191;50.908;6.962;2023-02-01T00:42:49;7.70;99.90
44487;DHT22;30191;50.908;6.962;2023-02-01T00:45:15;7.60;99.90
44487;DHT22;30191;50.908;6.962;2023-02-01T00:47:41;7.60;99.90
44487;DHT22;30191;50.908;6.962;2023-02-01T00:50:07;7.60;99.90
44487;DHT22;30191;50.908;6.962;2023-02-01T00:52:32;7.60;99.90
44487;DHT22;30191;50.908;6.962;2023-02-01T00:54:58;7.60;99.90
44487;DHT22;30191;50.908;6.962;2023-02-01T00:57:23;7.60;99.90
44487;DHT22;30191;50.908;6.962;2023-02-01T00:59:49;7.60;99.90
44487;DHT22;30191;50.908;6.962;2023-02-01T01:02:15;7.60;99.90
44487;DHT22;30191;50.908;6.962;2023-02-01T01:04:40;7.60;99.90
44487;DHT22;30191;50.908;6.962;2023-02-01T01:07:06;7.60;99.90
44487;DHT22;30191;50.908;6.962;2023-02-01T01:09:31;7.60;99.90
44487;DHT22;30191;50.908;6.962;2023-02-01T01:11:57;7.60;99.90
44487;DHT22;30191;50.908;6.962;2023-02-01T01:14:31;7.60;99.90
44487;DHT22;30191;50.908;6.962;2023-02-01T01:16:57;7.60;99.90
44487;DHT22;30191;50.908;6.962;2023-02-01T01:19:22;7.60;99.90
44487;DHT22;30191;50.908;6.962;2023-02-01T01:21:48;7.50;99.90
44487;DHT22;30191;50.908;6.962;2023-02-01T01:24:14;7.50;99.90
44487;DHT22;30191;50.908;6.962;2023-02-01T01:26:40;7.60;99.90
44487;DHT22;30191;50.908;6.962;2023-02-01T01:29:05;7.60;99.90
44487;DHT22;30191;50.908;6.962;2023-02-01T01:31:31;7.60;99.90
44487;DHT22;30191;50.908;6.962;2023-02-01T01:33:58;7.50;99.90
44487;DHT22;30191;50.908;6.962;2023-02-01T01:36:24;7.50;99.90
44487;DHT22;30191;50.908;6.962;2023-02-01T01:38:50;7.60;99.90
44487;DHT22;30191;50.908;6.962;2023-02-01T01:41:18;7.60;99.90
44487;DHT22;30191;50.908;6.962;2023-02-01T01:43:54;7.50;99.90
44487;DHT22;30191;50.908;6.962;2023-02-01T01:46:22;7.50;99.90
44487;DHT22;30191;50.908;6.962;2023-02-01T01:48:49;7.50;99.90
44487;DHT22;30191;50.908;6.962;2023-02-01T01:51:17;7.50;99.90
44487;DHT22;30191;50.908;6.962;2023-02-01T01:53:45;7.50;99.90
44487;DHT22;30191;50.908;6.962;2023-02-01T01:56:12;7.50;99.90
44487;DHT22;30191;50.908;6.962;2023-02-01T01:58:38;7.50;99.90
44487;DHT22;30191;50.908;6.962;2023-02-01T02:01:03;7.50;99.90
44487;DHT22;30191;50.908;6.962;2023-02-01T02:03:34;7.50;99.90
44487;DHT22;30191;50.908;6.962;2023-02-01T02:06:00;7.40;99.90
44487;DHT22;30191;50.908;6.962;2023-02-01T02:08:27;7.40;99.90
44487;DHT22;30191;50.908;6.962;2023-02-01T02:10:53;7.50;99.90
44487;DHT22;30191;50.908;6.962;2023-02-01T02:13:29;7.40;99.90
44487;DHT22;30191;50.908;6.962;2023-02-01T02:18:31;7.50;99.90
44487;DHT22;30191;50.908;6.962;2023-02-01T02:21:14;7.50;99.90
44487;DHT22;30191;50.908;6.962;2023-02-01T02:29:00;7.40;99.90
44487;DHT22;30191;50.908;6.962;2023-02-01T02:34:17;7.40;99.90
44487;DHT22;30191;50.908;6.962;2023-02-01T02:44:57;7.50;99.90
44487;DHT22;30191;50.908;6.962;2023-02-01T02:47:46;7.50;99.90
44487;DHT22;30191;50.908;6.962;2023-02-01T02:53:15;7.50;99.90
44487;DHT22;30191;50.908;6.962;2023-02-01T02:56:00;7.40;99.90
44487;DHT22;30191;50.908;6.962;2023-02-01T02:58:45;7.50;99.90
44487;DHT22;30191;50.908;6.962;2023-02-01T03:01:30;7.50;99.90
44487;DHT22;30191;50.908;6.962;2023-02-01T03:04:15;7.40;99.90
44487;DHT22;30191;50.908;6.962;2023-02-01T03:06:43;7.40;99.90
44487;DHT22;30191;50.908;6.962;2023-02-01T03:11:50;7.40;99.90
44487;DHT22;30191;50.908;6.962;2023-02-01T03:14:36;7.50;99.90
44487;DHT22;30191;50.908;6.962;2023-02-01T03:17:06;7.40;99.90
44487;DHT22;30191;50.908;6.962;2023-02-01T03:19:35;7.40;99.90
44487;DHT22;30191;50.908;6.962;2023-02-01T03:22:03;7.40;99.90
44487;DHT22;30191;50.908;6.962;2023-02-01T03:27:20;7.40;99.90
44487;DHT22;30191;50.908;6.962;2023-02-01T03:30:08;7.40;99.90
44487;DHT22;30191;50.908;6.962;2023-02-01T03:32:35;7.40;99.90
44487;DHT22;30191;50.908;6.962;2023-02-01T03:35:36;7.40;99.90
44487;DHT22;30191;50.908;6.962;2023-02-01T03:40:54;7.40;99.90
44487;DHT22;30191;50.908;6.962;2023-02-01T03:43:21;7.40;99.90
44487;DHT22;30191;50.908;6.962;2023-02-01T03:45:49;7.40;99.90
44487;DHT22;30191;50.908;6.962;2023-02-01T03:48:15;7.40;99.90
44487;DHT22;30191;50.908;6.962;2023-02-01T03:50:46;7.30;99.90
44487;DHT22;30191;50.908;6.962;2023-02-01T03:53:15;7.40;99.90
44487;DHT22;30191;50.908;6.962;2023-02-01T03:55:42;7.30;99.90
44487;DHT22;30191;50.908;6.962;2023-02-01T04:00:33;7.30;99.90
44487;DHT22;30191;50.908;6.962;2023-02-01T04:02:59;7.30;99.90
44487;DHT22;30191;50.908;6.962;2023-02-01T04:05:24;7.30;99.90
44487;DHT22;30191;50.908;6.962;2023-02-01T04:07:50;7.30;99.90
44487;DHT22;30191;50.908;6.962;2023-02-01T04:10:16;7.20;99.90
44487;DHT22;30191;50.908;6.962;2023-02-01T04:12:42;7.30;99.90
44487;DHT22;30191;50.908;6.962;2023-02-01T04:15:07;7.30;99.90
44487;DHT22;30191;50.908;6.962;2023-02-01T04:17:33;7.30;99.90
44487;DHT22;30191;50.908;6.962;2023-02-01T04:19:59;7.30;99.90
44487;DHT22;30191;50.908;6.962;2023-02-01T04:22:25;7.30;99.90
44487;DHT22;30191;50.908;6.962;2023-02-01T04:24:50;7.30;99.90
44487;DHT22;30191;50.908;6.962;2023-02-01T04:27:16;7.30;99.90
44487;DHT22;30191;50.908;6.962;2023-02-01T04:29:42;7.30;99.90
44487;DHT22;30191;50.908;6.962;2023-02-01T04:32:07;7.30;99.90
44487;DHT22;30191;50.908;6.962;2023-02-01T04:34:33;7.30;99.90
44487;DHT22;30191;50.908;6.962;2023-02-01T04:36:59;7.30;99.90
44487;DHT22;30191;50.908;6.962;2023-02-01T04:39:24;7.30;99.90
44487;DHT22;30191;50.908;6.962;2023-02-01T04:41:50;7.30;99.90
44487;DHT22;30191;50.908;6.962;2023-02-01T04:44:16;7.20;99.90
44487;DHT22;30191;50.908;6.962;2023-02-01T04:46:42;7.20;99.90
44487;DHT22;30191;50.908;6.962;2023-02-01T04:49:11;7.20;99.90
44487;DHT22;30191;50.908;6.962;2023-02-01T04:51:37;7.20;99.90
44487;DHT22;30191;50.908;6.962;2023-02-01T04:54:02;7.20;99.90
44487;DHT22;30191;50.908;6.962;2023-02-01T04:56:28;7.20;99.90
44487;DHT22;30191;50.908;6.962;2023-02-01T04:58:55;7.10;99.90
44487;DHT22;30191;50.908;6.962;2023-02-01T05:01:21;7.10;99.90
44487;DHT22;30191;50.908;6.962;2023-02-01T05:03:47;7.10;99.90
44487;DHT22;30191;50.908;6.962;2023-02-01T05:06:13;7.10;99.90
44487;DHT22;30191;50.908;6.962;2023-02-01T05:08:39;7.00;99.90
44487;DHT22;30191;50.908;6.962;2023-02-01T05:11:05;7.00;99.90
44487;DHT22;30191;50.908;6.962;2023-02-01T05:13:30;7.00;99.90
44487;DHT22;30191;50.908;6.962;2023-02-01T05:16:14;7.00;99.90
44487;DHT22;30191;50.908;6.962;2023-02-01T05:18:40;7.00;99.90
44487;DHT22;30191;50.908;6.962;2023-02-01T05:21:05;7.00;99.90
44487;DHT22;30191;50.908;6.962;2023-02-01T05:23:31;7.00;99.90
44487;DHT22;30191;50.908;6.962;2023-02-01T05:26:00;7.00;99.90
44487;DHT22;30191;50.908;6.962;2023-02-01T05:28:26;6.90;99.90
44487;DHT22;30191;50.908;6.962;2023-02-01T05:30:52;6.90;99.90
44487;DHT22;30191;50.908;6.962;2023-02-01T05:33:18;6.90;99.90
44487;DHT22;30191;50.908;6.962;2023-02-01T05:35:44;6.90;99.90
44487;DHT22;30191;50.908;6.962;2023-02-01T05:38:09;6.80;99.90
44487;DHT22;30191;50.908;6.962;2023-02-01T05:40:35;6.80;99.90
44487;DHT22;30191;50.908;6.962;2023-02-01T05:43:00;6.90;99.90
44487;DHT22;30191;50.908;6.962;2023-02-01T05:45:26;6.80;99.90
44487;DHT22;30191;50.908;6.962;2023-02-01T05:47:52;6.80;99.90
44487;DHT22;30191;50.908;6.962;2023-02-01T05:50:17;6.80;99.90
44487;DHT22;30191;50.908;6.962;2023-02-01T05:52:43;6.70;99.90
44487;DHT22;30191;50.908;6.962;2023-02-01T05:55:09;6.80;99.90
44487;DHT22;30191;50.908;6.962;2023-02-01T05:57:35;6.80;99.90
44487;DHT22;30191;50.908;6.962;2023-02-01T06:00:00;6.70;99.90
44487;DHT22;30191;50.908;6.962;2023-02-01T06:02:26;6.80;99.90
44487;DHT22;30191;50.908;6.962;2023-02-01T06:04:52;6.70;99.90
44487;DHT22;30191;50.908;6.962;2023-02-01T06:07:17;6.70;99.90
44487;DHT22;30191;50.908;6.962;2023-02-01T06:09:43;6.70;99.90
44487;DHT22;30191;50.908;6.962;2023-02-01T06:12:09;6.70;99.90
44487;DHT22;30191;50.908;6.962;2023-02-01T06:14:34;6.70;99.90
44487;DHT22;30191;50.908;6.962;2023-02-01T06:17:00;6.60;99.90
44487;DHT22;30191;50.908;6.962;2023-02-01T06:19:25;6.70;99.90
44487;DHT22;30191;50.908;6.962;2023-02-01T06:21:51;6.60;99.90
44487;DHT22;30191;50.908;6.962;2023-02-01T06:24:16;6.60;99.90
44487;DHT22;30191;50.908;6.962;2023-02-01T06:26:42;6.60;99.90
44487;DHT22;30191;50.908;6.962;2023-02-01T06:29:12;6.60;99.90
44487;DHT22;30191;50.908;6.962;2023-02-01T06:31:38;6.60;99.90
44487;DHT22;30191;50.908;6.962;2023-02-01T06:34:03;6.60;99.90
44487;DHT22;30191;50.908;6.962;2023-02-01T06:36:29;6.60;99.90
44487;DHT22;30191;50.908;6.962;2023-02-01T06:38:58;6.60;99.90
44487;DHT22;30191;50.908;6.962;2023-02-01T06:41:25;6.60;99.90
44487;DHT22;30191;50.908;6.962;2023-02-01T06:43:50;6.60;99.90
44487;DHT22;30191;50.908;6.962;2023-02-01T06:46:16;6.60;99.90
44487;DHT22;30191;50.908;6.962;2023-02-01T06:48:42;6.50;99.90
44487;DHT22;30191;50.908;6.962;2023-02-01T06:51:24;6.50;99.90
44487;DHT22;30191;50.908;6.962;2023-02-01T06:53:50;6.50;99.90
44487;DHT22;30191;50.908;6.962;2023-02-01T06:56:16;6.50;99.90
44487;DHT22;30191;50.908;6.962;2023-02-01T06:58:41;6.50;99.90
44487;DHT22;30191;50.908;6.962;2023-02-01T07:01:08;6.50;99.90
44487;DHT22;30191;50.908;6.962;2023-02-01T07:03:34;6.50;99.90
44487;DHT22;30191;50.908;6.962;2023-02-01T07:05:59;6.50;99.90
44487;DHT22;30191;50.908;6.962;2023-02-01T07:08:29;6.60;99.90
44487;DHT22;30191;50.908;6.962;2023-02-01T07:10:54;6.60;99.90
44487;DHT22;30191;50.908;6.962;2023-02-01T07:13:20;6.60;99.90
44487;DHT22;30191;50.908;6.962;2023-02-01T07:15:45;6.60;99.90
44487;DHT22;30191;50.908;6.962;2023-02-01T07:18:14;6.60;99.90
44487;DHT22;30191;50.908;6.962;2023-02-01T07:20:40;6.60;99.90
44487;DHT22;30191;50.908;6.962;2023-02-01T07:23:06;6.60;99.90
44487;DHT22;30191;50.908;6.962;2023-02-01T07:25:31;6.60;99.90
44487;DHT22;30191;50.908;6.962;2023-02-01T07:27:57;6.60;99.90
44487;DHT22;30191;50.908;6.962;2023-02-01T07:30:23;6.60;99.90
44487;DHT22;30191;50.908;6.962;2023-02-01T07:32:48;6.60;99.90
44487;DHT22;30191;50.908;6.962;2023-02-01T07:35:14;6.60;99.90
44487;DHT22;30191;50.908;6.962;2023-02-01T07:37:40;6.60;99.90
44487;DHT22;30191;50.908;6.962;2023-02-01T07:40:05;6.60;99.90
44487;DHT22;30191;50.908;6.962;2023-02-01T07:42:31;6.70;99.90
44487;DHT22;30191;50.908;6.962;2023-02-01T07:44:56;6.70;99.90
44487;DHT22;30191;50.908;6.962;2023-02-01T07:47:22;6.70;99.90
44487;DHT22;30191;50.908;6.962;2023-02-01T07:49:48;6.70;99.90
44487;DHT22;30191;50.908;6.962;2023-02-01T07:52:13;6.60;99.90
44487;DHT22;30191;50.908;6.962;2023-02-01T07:54:41;6.70;99.90
44487;DHT22;30191;50.908;6.962;2023-02-01T07:57:08;6.60;99.90
44487;DHT22;30191;50.908;6.962;2023-02-01T07:59:34;6.60;99.90
44487;DHT22;30191;50.908;6.962;2023-02-01T08:02:00;6.60;99.90
44487;DHT22;30191;50.908;6.962;2023-02-01T08:04:25;6.60;99.90
44487;DHT22;30191;50.908;6.962;2023-02-01T08:06:51;6.60;99.90
44487;DHT22;30191;50.908;6.962;2023-02-01T08:09:17;6.60;99.90
44487;DHT22;30191;50.908;6.962;2023-02-01T08:11:42;6.60;99.90
44487;DHT22;30191;50.908;6.962;2023-02-01T08:14:08;6.60;99.90
44487;DHT22;30191;50.908;6.962;2023-02-01T08:16:34;6.60;99.90
44487;DHT22;30191;50.908;6.962;2023-02-01T08:19:01;6.60;99.90
44487;DHT22;30191;50.908;6.962;2023-02-01T08:21:28;6.60;99.90
44487;DHT22;30191;50.908;6.962;2023-02-01T08:24:08;6.60;99.90
44487;DHT22;30191;50.908;6.962;2023-02-01T08:26:34;6.60;99.90
44487;DHT22;30191;50.908;6.962;2023-02-01T08:29:00;6.70;99.90
44487;DHT22;30191;50.908;6.962;2023-02-01T08:31:27;6.60;99.90
44487;DHT22;30191;50.908;6.962;2023-02-01T08:33:54;6.60;99.90
44487;DHT22;30191;50.908;6.962;2023-02-01T08:36:20;6.70;99.90
44487;DHT22;30191;50.908;6.962;2023-02-01T08:38:46;6.60;99.90
44487;DHT22;30191;50.908;6.962;2023-02-01T08:41:13;6.60;99.90
44487;DHT22;30191;50.908;6.962;2023-02-01T08:43:39;6.70;99.90
44487;DHT22;30191;50.908;6.962;2023-02-01T08:46:05;6.70;99.90
44487;DHT22;30191;50.908;6.962;2023-02-01T08:48:31;6.70;99.90
44487;DHT22;30191;50.908;6.962;2023-02-01T08:50:56;6.70;99.90
44487;DHT22;30191;50.908;6.962;2023-02-01T08:53:22;6.80;99.90
44487;DHT22;30191;50.908;6.962;2023-02-01T08:55:48;6.80;99.90
44487;DHT22;30191;50.908;6.962;2023-02-01T08:58:14;6.90;99.90
44487;DHT22;30191;50.908;6.962;2023-02-01T09:00:42;6.90;99.90
44487;DHT22;30191;50.908;6.962;2023-02-01T09:03:09;6.90;99.90
44487;DHT22;30191;50.908;6.962;2023-02-01T09:05:36;7.00;99.90
44487;DHT22;30191;50.908;6.962;2023-02-01T09:08:01;7.00;99.90
44487;DHT22;30191;50.908;6.962;2023-02-01T09:10:27;7.00;99.90
44487;DHT22;30191;50.908;6.962;2023-02-01T09:12:53;7.00;99.90
44487;DHT22;30191;50.908;6.962;2023-02-01T09:15:18;7.10;99.90
44487;DHT22;30191;50.908;6.962;2023-02-01T09:17:44;7.10;99.90
44487;DHT22;30191;50.908;6.962;2023-02-01T09:20:09;7.10;99.90
44487;DHT22;30191;50.908;6.962;2023-02-01T09:22:35;7.20;99.90
44487;DHT22;30191;50.908;6.962;2023-02-01T09:25:01;7.30;99.90
44487;DHT22;30191;50.908;6.962;2023-02-01T09:27:26;7.30;99.90
44487;DHT22;30191;50.908;6.962;2023-02-01T09:29:52;7.30;99.90
44487;DHT22;30191;50.908;6.962;2023-02-01T09:32:21;7.20;99.90
44487;DHT22;30191;50.908;6.962;2023-02-01T09:34:47;7.20;99.90
44487;DHT22;30191;50.908;6.962;2023-02-01T09:37:13;7.20;99.90
44487;DHT22;30191;50.908;6.962;2023-02-01T09:39:39;7.10;99.90
44487;DHT22;30191;50.908;6.962;2023-02-01T09:42:16;7.20;99.90
44487;DHT22;30191;50.908;6.962;2023-02-01T09:47:29;7.30;99.90
44487;DHT22;30191;50.908;6.962;2023-02-01T09:49:56;7.40;99.90
44487;DHT22;30191;50.908;6.962;2023-02-01T09:52:34;7.40;99.90
44487;DHT22;30191;50.908;6.962;2023-02-01T09:55:03;7.50;99.90
44487;DHT22;30191;50.908;6.962;2023-02-01T09:58:12;7.50;99.90
44487;DHT22;30191;50.908;6.962;2023-02-01T10:00:20;7.50;99.90
44487;DHT22;30191;50.908;6.962;2023-02-01T10:02:46;7.60;99.90
44487;DHT22;30191;50.908;6.962;2023-02-01T10:05:12;7.60;99.90
44487;DHT22;30191;50.908;6.962;2023-02-01T10:07:48;7.60;99.90
44487;DHT22;30191;50.908;6.962;2023-02-01T10:10:30;7.50;99.90
44487;DHT22;30191;50.908;6.962;2023-02-01T10:13:15;7.60;99.90
44487;DHT22;30191;50.908;6.962;2023-02-01T10:15:50;7.50;99.90
44487;DHT22;30191;50.908;6.962;2023-02-01T10:20:56;7.50;99.90
44487;DHT22;30191;50.908;6.962;2023-02-01T10:23:28;7.50;99.90
44487;DHT22;30191;50.908;6.962;2023-02-01T10:28:40;7.50;99.90
44487;DHT22;30191;50.908;6.962;2023-02-01T10:31:06;7.50;99.90
44487;DHT22;30191;50.908;6.962;2023-02-01T10:33:35;7.60;99.90
44487;DHT22;30191;50.908;6.962;2023-02-01T10:36:14;7.60;99.90
44487;DHT22;30191;50.908;6.962;2023-02-01T10:38:42;7.70;99.90
44487;DHT22;30191;50.908;6.962;2023-02-01T10:41:11;7.80;99.90
44487;DHT22;30191;50.908;6.962;2023-02-01T10:43:37;7.80;99.90
44487;DHT22;30191;50.908;6.962;2023-02-01T10:46:04;7.90;99.90
44487;DHT22;30191;50.908;6.962;2023-02-01T10:48:30;7.90;99.90
44487;DHT22;30191;50.908;6.962;2023-02-01T10:53:24;7.90;99.90
44487;DHT22;30191;50.908;6.962;2023-02-01T10:55:54;8.00;99.90
44487;DHT22;30191;50.908;6.962;2023-02-01T10:58:27;8.00;99.90
44487;DHT22;30191;50.908;6.962;2023-02-01T11:00:55;8.00;99.90
44487;DHT22;30191;50.908;6.962;2023-02-01T11:03:36;8.00;99.90
44487;DHT22;30191;50.908;6.962;2023-02-01T11:06:04;8.10;99.90
44487;DHT22;30191;50.908;6.962;2023-02-01T11:08:34;8.10;99.90
44487;DHT22;30191;50.908;6.962;2023-02-01T11:11:06;8.20;99.90
44487;DHT22;30191;50.908;6.962;2023-02-01T11:13:37;8.20;99.90
44487;DHT22;30191;50.908;6.962;2023-02-01T11:16:04;8.20;99.90
44487;DHT22;30191;50.908;6.962;2023-02-01T11:18:31;8.30;99.90
44487;DHT22;30191;50.908;6.962;2023-02-01T11:20:57;8.30;99.90
44487;DHT22;30191;50.908;6.962;2023-02-01T11:23:24;8.30;99.90
44487;DHT22;30191;50.908;6.962;2023-02-01T11:25:52;8.20;99.90
44487;DHT22;30191;50.908;6.962;2023-02-01T11:28:18;8.20;99.90
44487;DHT22;30191;50.908;6.962;2023-02-01T11:30:45;8.20;99.90
44487;DHT22;30191;50.908;6.962;2023-02-01T11:33:13;8.20;99.90
44487;DHT22;30191;50.908;6.962;2023-02-01T11:35:40;8.20;99.90
44487;DHT22;30191;50.908;6.962;2023-02-01T11:38:17;8.20;99.90
44487;DHT22;30191;50.908;6.962;2023-02-01T11:40:45;8.20;99.90
44487;DHT22;30191;50.908;6.962;2023-02-01T11:45:39;8.20;99.90
44487;DHT22;30191;50.908;6.962;2023-02-01T11:48:14;8.20;99.90
44487;DHT22;30191;50.908;6.962;2023-02-01T11:56:05;8.30;99.90
44487;DHT22;30191;50.908;6.962;2023-02-01T12:01:39;8.30;99.90
44487;DHT22;30191;50.908;6.962;2023-02-01T12:06:56;8.30;99.90
44487;DHT22;30191;50.908;6.962;2023-02-01T12:17:26;8.20;99.90
44487;DHT22;30191;50.908;6.962;2023-02-01T12:35:54;8.20;99.90
44487;DHT22;30191;50.908;6.962;2023-02-01T12:41:18;8.20;99.90
44487;DHT22;30191;50.908;6.962;2023-02-01T12:43:53;8.30;99.90
44487;DHT22;30191;50.908;6.962;2023-02-01T12:46:25;8.30;99.90
44487;DHT22;30191;50.908;6.962;2023-02-01T12:48:57;8.40;99.90
44487;DHT22;30191;50.908;6.962;2023-02-01T12:51:28;8.40;99.90
44487;DHT22;30191;50.908;6.962;2023-02-01T12:54:09;8.40;99.90
44487;DHT22;30191;50.908;6.962;2023-02-01T12:56:55;8.40;99.90
44487;DHT22;30191;50.908;6.962;2023-02-01T12:59:31;8.40;99.90
44487;DHT22;30191;50.908;6.962;2023-02-01T13:02:04;8.40;99.90
44487;DHT22;30191;50.908;6.962;2023-02-01T13:04:43;8.40;99.90
44487;DHT22;30191;50.908;6.962;2023-02-01T13:09:41;8.30;99.90
44487;DHT22;30191;50.908;6.962;2023-02-01T13:12:15;8.30;99.90
44487;DHT22;30191;50.908;6.962;2023-02-01T13:15:17;8.20;99.90
44487;DHT22;30191;50.908;6.962;2023-02-01T13:17:34;8.30;99.90
44487;DHT22;30191;50.908;6.962;2023-02-01T13:27:23;8.20;99.90
44487;DHT22;30191;50.908;6.962;2023-02-01T13:29:58;8.20;99.90
44487;DHT22;30191;50.908;6.962;2023-02-01T13:43:09;8.20;99.90
44487;DHT22;30191;50.908;6.962;2023-02-01T13:45:36;8.20;99.90
44487;DHT22;30191;50.908;6.962;2023-02-01T13:48:06;8.30;99.90
44487;DHT22;30191;50.908;6.962;2023-02-01T13:50:40;8.20;99.90
44487;DHT22;30191;50.908;6.962;2023-02-01T13:55:39;8.20;99.90
44487;DHT22;30191;50.908;6.962;2023-02-01T14:00:35;8.20;99.90
44487;DHT22;30191;50.908;6.962;2023-02-01T14:10:50;8.30;99.90
44487;DHT22;30191;50.908;6.962;2023-02-01T14:18:54;8.30;99.90
44487;DHT22;30191;50.908;6.962;2023-02-01T14:21:31;8.30;99.90
44487;DHT22;30191;50.908;6.962;2023-02-01T14:34:11;8.50;99.90
44487;DHT22;30191;50.908;6.962;2023-02-01T14:36:39;8.50;99.90
44487;DHT22;30191;50.908;6.962;2023-02-01T14:39:16;8.50;99.90
44487;DHT22;30191;50.908;6.962;2023-02-01T14:41:43;8.50;99.90
44487;DHT22;30191;50.908;6.962;2023-02-01T14:49:19;8.50;99.90
44487;DHT22;30191;50.908;6.962;2023-02-01T14:51:44;8.50;99.90
44487;DHT22;30191;50.908;6.962;2023-02-01T14:54:11;8.50;99.90
44487;DHT22;30191;50.908;6.962;2023-02-01T14:56:37;8.50;99.90
44487;DHT22;30191;50.908;6.962;2023-02-01T14:59:07;8.60;99.90
44487;DHT22;30191;50.908;6.962;2023-02-01T15:01:35;8.60;99.90
44487;DHT22;30191;50.908;6.962;2023-02-01T15:06:32;8.60;99.90
44487;DHT22;30191;50.908;6.962;2023-02-01T15:11:44;8.60;99.90
44487;DHT22;30191;50.908;6.962;2023-02-01T15:14:18;8.70;99.90
44487;DHT22;30191;50.908;6.962;2023-02-01T15:16:43;8.70;99.90
44487;DHT22;30191;50.908;6.962;2023-02-01T15:19:15;8.60;99.90
44487;DHT22;30191;50.908;6.962;2023-02-01T15:21:45;8.70;99.90
44487;DHT22;30191;50.908;6.962;2023-02-01T15:24:17;8.70;99.90
44487;DHT22;30191;50.908;6.962;2023-02-01T15:26:43;8.70;99.90
44487;DHT22;30191;50.908;6.962;2023-02-01T15:29:10;8.70;99.90
44487;DHT22;30191;50.908;6.962;2023-02-01T15:31:37;8.60;99.90
44487;DHT22;30191;50.908;6.962;2023-02-01T15:34:03;8.70;99.90
44487;DHT22;30191;50.908;6.962;2023-02-01T15:36:29;8.70;99.90
44487;DHT22;30191;50.908;6.962;2023-02-01T15:41:38;8.70;99.90
44487;DHT22;30191;50.908;6.962;2023-02-01T15:44:08;8.70;99.90
44487;DHT22;30191;50.908;6.962;2023-02-01T15:46:48;8.70;99.90
44487;DHT22;30191;50.908;6.962;2023-02-01T15:51:46;8.70;99.90
44487;DHT22;30191;50.908;6.962;2023-02-01T15:54:13;8.70;99.90
44487;DHT22;30191;50.908;6.962;2023-02-01T15:56:40;8.70;99.90
44487;DHT22;30191;50.908;6.962;2023-02-01T15:59:13;8.70;99.90
44487;DHT22;30191;50.908;6.962;2023-02-01T16:01:40;8.70;99.90
44487;DHT22;30191;50.908;6.962;2023-02-01T16:06:32;8.70;99.90
44487;DHT22;30191;50.908;6.962;2023-02-01T16:11:28;8.70;99.90
44487;DHT22;30191;50.908;6.962;2023-02-01T16:13:58;8.70;99.90
44487;DHT22;30191;50.908;6.962;2023-02-01T16:16:25;8.70;99.90
44487;DHT22;30191;50.908;6.962;2023-02-01T16:18:50;8.60;99.90
44487;DHT22;30191;50.908;6.962;2023-02-01T16:21:16;8.60;99.90
44487;DHT22;30191;50.908;6.962;2023-02-01T16:23:42;8.60;99.90
44487;DHT22;30191;50.908;6.962;2023-02-01T16:26:07;8.50;99.90
44487;DHT22;30191;50.908;6.962;2023-02-01T16:28:33;8.50;99.90
44487;DHT22;30191;50.908;6.962;2023-02-01T16:30:59;8.40;99.90
44487;DHT22;30191;50.908;6.962;2023-02-01T16:33:25;8.30;99.90
44487;DHT22;30191;50.908;6.962;2023-02-01T16:35:51;8.20;99.90
44487;DHT22;30191;50.908;6.962;2023-02-01T16:38:19;8.20;99.90
44487;DHT22;30191;50.908;6.962;2023-02-01T16:40:47;8.20;99.90
44487;DHT22;30191;50.908;6.962;2023-02-01T16:43:14;8.10;99.90
44487;DHT22;30191;50.908;6.962;2023-02-01T16:45:41;8.00;99.90
44487;DHT22;30191;50.908;6.962;2023-02-01T16:48:16;8.00;99.90
44487;DHT22;30191;50.908;6.962;2023-02-01T16:50:42;8.00;99.90
44487;DHT22;30191;50.908;6.962;2023-02-01T16:53:09;8.00;99.90
44487;DHT22;30191;50.908;6.962;2023-02-01T16:55:36;7.90;99.90
44487;DHT22;30191;50.908;6.962;2023-02-01T16:58:01;7.90;99.90
44487;DHT22;30191;50.908;6.962;2023-02-01T17:00:27;7.90;99.90
44487;DHT22;30191;50.908;6.962;2023-02-01T17:02:56;7.90;99.90
44487;DHT22;30191;50.908;6.962;2023-02-01T17:05:21;7.90;99.90
44487;DHT22;30191;50.908;6.962;2023-02-01T17:07:47;7.90;99.90
44487;DHT22;30191;50.908;6.962;2023-02-01T17:10:18;7.90;99.90
44487;DHT22;30191;50.908;6.962;2023-02-01T17:12:46;7.90;99.90
44487;DHT22;30191;50.908;6.962;2023-02-01T17:15:12;7.80;99.90
44487;DHT22;30191;50.908;6.962;2023-02-01T17:17:38;7.80;99.90
44487;DHT22;30191;50.908;6.962;2023-02-01T17:20:04;7.90;99.90
44487;DHT22;30191;50.908;6.962;2023-02-01T17:22:31;7.90;99.90
44487;DHT22;30191;50.908;6.962;2023-02-01T17:24:57;7.90;99.90
44487;DHT22;30191;50.908;6.962;2023-02-01T17:27:22;7.90;99.90
44487;DHT22;30191;50.908;6.962;2023-02-01T17:29:48;7.90;99.90
44487;DHT22;30191;50.908;6.962;2023-02-01T17:32:17;7.90;99.90
44487;DHT22;30191;50.908;6.962;2023-02-01T17:34:44;7.90;99.90
44487;DHT22;30191;50.908;6.962;2023-02-01T17:37:15;7.90;99.90
44487;DHT22;30191;50.908;6.962;2023-02-01T17:39:43;7.90;99.90
44487;DHT22;30191;50.908;6.962;2023-02-01T17:42:21;7.90;99.90
44487;DHT22;30191;50.908;6.962;2023-02-01T17:44:46;7.90;99.90
44487;DHT22;30191;50.908;6.962;2023-02-01T17:47:12;7.80;99.90
44487;DHT22;30191;50.908;6.962;2023-02-01T17:49:37;7.80;99.90
44487;DHT22;30191;50.908;6.962;2023-02-01T17:52:04;7.80;99.90
44487;DHT22;30191;50.908;6.962;2023-02-01T17:54:29;7.80;99.90
44487;DHT22;30191;50.908;6.962;2023-02-01T17:56:55;7.80;99.90
44487;DHT22;30191;50.908;6.962;2023-02-01T17:59:24;7.80;99.90
44487;DHT22;30191;50.908;6.962;2023-02-01T18:01:50;7.80;99.90
44487;DHT22;30191;50.908;6.962;2023-02-01T18:04:17;7.90;99.90
44487;DHT22;30191;50.908;6.962;2023-02-01T18:06:43;7.80;99.90
44487;DHT22;30191;50.908;6.962;2023-02-01T18:09:09;7.90;99.90
44487;DHT22;30191;50.908;6.962;2023-02-01T18:11:35;7.90;99.90
44487;DHT22;30191;50.908;6.962;2023-02-01T18:14:00;7.90;99.90
44487;DHT22;30191;50.908;6.962;2023-02-01T18:16:27;7.90;99.90
44487;DHT22;30191;50.908;6.962;2023-02-01T18:18:53;7.90;99.90
44487;DHT22;30191;50.908;6.962;2023-02-01T18:21:21;7.90;99.90
44487;DHT22;30191;50.908;6.962;2023-02-01T18:23:47;7.90;99.90